Time;durP1;ratioP1;P1;durP2;ratioP2;P2;SDS_P1;SDS_P2;PMS_P1;PMS_P2;Temp;Humidity;BMP_temperature;BMP_pressure;BME280_temperature;BME280_humidity;BME280_pressure;Samples;Min_cycle;Max_cycle;Signal;HPM_P1;HPM_P2
2023/01/19 00:01:11;;;;;;;2.25;1.95;;;17.30;50.20;;;;;;5114511;28;20213;-61
2023/01/19 00:03:36;;;;;;;2.40;2.00;;;17.30;50.20;;;;;;5113210;28;20538;-61
2023/01/19 00:06:06;;;;;;;2.10;2.00;;;17.20;50.20;;;;;;5114225;28;20534;-61
2023/01/19 00:08:31;;;;;;;2.45;2.13;;;17.20;50.20;;;;;;5113891;28;20176;-61
2023/01/19 00:10:57;;;;;;;3.35;2.50;;;17.20;50.20;;;;;;5113549;28;20189;-61
2023/01/19 00:13:22;;;;;;;3.25;2.50;;;17.20;50.10;;;;;;5114421;28;20191;-61
2023/01/19 00:15:48;;;;;;;3.88;2.55;;;17.10;50.10;;;;;;5113030;28;20533;-61
2023/01/19 00:18:13;;;;;;;2.03;1.92;;;17.10;50.10;;;;;;5114057;28;20173;-61
2023/01/19 00:20:39;;;;;;;2.75;2.38;;;17.10;50.10;;;;;;5113734;28;20248;-61
2023/01/19 00:23:06;;;;;;;3.13;2.10;;;17.10;50.10;;;;;;5113256;28;20681;-61
2023/01/19 00:25:32;;;;;;;3.13;2.42;;;17.10;50.20;;;;;;5113980;28;20185;-61
2023/01/19 00:27:57;;;;;;;2.70;2.28;;;17.00;50.20;;;;;;5114052;28;20234;-60
2023/01/19 00:30:23;;;;;;;2.67;2.35;;;17.00;50.30;;;;;;5113179;28;20177;-61
2023/01/19 00:32:48;;;;;;;2.63;2.40;;;17.00;50.20;;;;;;5113574;28;20546;-61
2023/01/19 00:35:14;;;;;;;2.00;1.80;;;17.00;50.20;;;;;;5113718;28;20720;-61
2023/01/19 00:37:40;;;;;;;2.90;2.10;;;17.00;50.20;;;;;;5112668;28;20577;-61
2023/01/19 00:40:06;;;;;;;2.42;2.22;;;17.00;50.30;;;;;;5113476;28;20231;-62
2023/01/19 00:42:43;;;;;;;2.38;2.17;;;16.90;50.30;;;;;;5113489;28;20169;-62
2023/01/19 00:45:09;;;;;;;2.53;2.33;;;16.90;50.20;;;;;;5112855;28;20176;-62
2023/01/19 00:47:35;;;;;;;2.45;2.25;;;16.90;50.20;;;;;;5113361;28;20663;-62
2023/01/19 00:50:00;;;;;;;3.42;2.30;;;16.90;50.20;;;;;;5113631;28;20204;-61
2023/01/19 00:52:26;;;;;;;2.78;2.20;;;16.90;50.20;;;;;;5112738;28;20196;-61
2023/01/19 00:54:51;;;;;;;3.25;2.30;;;16.90;50.20;;;;;;5113326;28;20212;-61
2023/01/19 00:57:18;;;;;;;2.92;2.40;;;16.80;50.30;;;;;;5113610;28;20205;-61
2023/01/19 00:59:43;;;;;;;2.97;2.30;;;16.80;50.20;;;;;;5112452;28;20243;-61
2023/01/19 01:02:10;;;;;;;2.95;2.40;;;16.80;50.30;;;;;;5113434;28;20204;-61
2023/01/19 01:04:36;;;;;;;2.90;2.22;;;16.80;50.20;;;;;;5113048;28;20252;-61
2023/01/19 01:07:01;;;;;;;2.58;2.38;;;16.80;50.20;;;;;;5112713;28;20212;-61
2023/01/19 01:09:27;;;;;;;3.17;2.10;;;16.70;50.20;;;;;;5113782;28;20314;-61
2023/01/19 01:11:53;;;;;;;2.15;1.90;;;16.70;50.30;;;;;;5113178;28;20317;-61
2023/01/19 01:14:18;;;;;;;2.65;2.25;;;16.70;50.20;;;;;;5112541;28;20623;-61
2023/01/19 01:16:44;;;;;;;2.67;2.47;;;16.70;50.20;;;;;;5112786;28;20224;-61
2023/01/19 01:19:09;;;;;;;2.20;2.00;;;16.70;50.20;;;;;;5112426;28;20172;-61
2023/01/19 01:21:36;;;;;;;2.83;2.35;;;16.70;50.30;;;;;;5112702;28;20610;-61
2023/01/19 01:24:02;;;;;;;2.83;2.40;;;16.60;50.20;;;;;;5112982;28;20180;-60
2023/01/19 01:26:27;;;;;;;3.63;2.40;;;16.70;50.30;;;;;;5112250;28;20185;-60
2023/01/19 01:28:53;;;;;;;3.05;2.10;;;16.60;50.20;;;;;;5112739;28;20180;-59
2023/01/19 01:31:18;;;;;;;2.78;2.40;;;16.60;50.30;;;;;;5113105;28;20165;-60
2023/01/19 01:33:44;;;;;;;2.67;2.40;;;16.60;50.20;;;;;;5111975;28;20218;-60
2023/01/19 01:36:10;;;;;;;2.78;2.47;;;16.60;50.30;;;;;;5113086;28;20173;-61
2023/01/19 01:38:36;;;;;;;2.42;2.22;;;16.60;50.20;;;;;;5112715;28;20169;-61
2023/01/19 01:41:02;;;;;;;4.18;2.55;;;16.60;50.30;;;;;;5112388;28;20258;-61
2023/01/19 01:43:44;;;;;;;2.35;2.15;;;16.60;50.30;;;;;;5112958;28;20169;-61
2023/01/19 01:46:10;;;;;;;2.40;2.13;;;16.60;50.30;;;;;;5112968;28;20647;-61
2023/01/19 01:48:35;;;;;;;3.47;2.70;;;16.60;50.30;;;;;;5111834;28;20216;-60
2023/01/19 01:51:23;;;;;;;2.97;2.65;;;16.50;50.20;;;;;;5095018;28;20197;-60
2023/01/19 01:53:55;;;;;;;3.38;2.40;;;16.50;50.30;;;;;;5098910;28;20183;-60
2023/01/19 01:56:24;;;;;;;3.28;2.30;;;16.50;50.20;;;;;;5098959;28;20260;-60
2023/01/19 01:58:50;;;;;;;2.50;2.30;;;16.60;50.40;;;;;;5098492;28;20639;-60
2023/01/19 02:03:59;;;;;;;4.07;2.22;;;16.50;50.20;;;;;;5116802;28;20228;-60
2023/01/19 02:06:25;;;;;;;2.95;2.30;;;16.40;50.20;;;;;;5116782;28;20180;-60
2023/01/19 02:14:36;;;;;;;3.65;2.70;;;16.40;50.10;;;;;;5100783;28;20748;-61
2023/01/19 02:17:01;;;;;;;2.72;2.50;;;16.40;50.10;;;;;;5097821;28;20217;-61
2023/01/19 02:19:31;;;;;;;2.58;2.20;;;16.40;50.10;;;;;;5096303;28;20631;-61
2023/01/19 02:22:10;;;;;;;2.30;2.00;;;16.40;50.20;;;;;;5094089;28;20595;-60
2023/01/19 02:24:36;;;;;;;2.58;2.38;;;16.40;50.20;;;;;;5080381;28;20264;-60
2023/01/19 02:27:01;;;;;;;3.10;2.38;;;16.30;50.10;;;;;;5098267;28;20263;-59
2023/01/19 02:29:27;;;;;;;2.72;2.25;;;16.30;50.10;;;;;;5097433;28;20264;-60
2023/01/19 02:31:54;;;;;;;2.72;2.10;;;16.30;50.70;;;;;;5097774;28;20177;-60
2023/01/19 02:34:20;;;;;;;2.47;2.28;;;16.30;50.20;;;;;;5081539;28;20602;-60
2023/01/19 02:36:56;;;;;;;2.38;2.17;;;16.30;50.20;;;;;;5080205;28;20252;-61
2023/01/19 02:39:42;;;;;;;2.28;2.05;;;16.30;50.20;;;;;;5081620;28;20180;-61
2023/01/19 02:42:10;;;;;;;2.50;2.30;;;16.30;50.10;;;;;;5097990;28;20631;-61
2023/01/19 02:44:36;;;;;;;2.65;2.20;;;16.30;50.20;;;;;;5079978;28;20173;-60
2023/01/19 02:47:02;;;;;;;2.10;2.00;;;16.30;50.20;;;;;;5097908;28;20180;-60
2023/01/19 02:49:29;;;;;;;2.35;2.00;;;16.30;50.20;;;;;;5097545;28;20646;-60
2023/01/19 02:51:54;;;;;;;1.95;1.77;;;16.30;50.20;;;;;;5114622;28;20177;-60
2023/01/19 02:54:45;;;;;;;2.80;2.00;;;16.20;50.20;;;;;;5097619;28;20256;-60
2023/01/19 02:57:26;;;;;;;2.95;2.33;;;16.20;50.20;;;;;;5115643;28;20550;-60
2023/01/19 03:00:01;;;;;;;2.47;2.28;;;16.20;50.30;;;;;;5115047;28;20655;-60
2023/01/19 03:02:56;;;;;;;2.38;2.17;;;16.20;50.20;;;;;;5097778;28;20180;-60
2023/01/19 03:05:56;;;;;;;2.63;2.03;;;16.20;50.30;;;;;;5096564;28;20184;-60
2023/01/19 03:08:25;;;;;;;2.33;2.00;;;16.20;50.20;;;;;;5115689;28;20173;-60
2023/01/19 03:11:10;;;;;;;2.38;2.17;;;16.20;50.30;;;;;;5097281;28;20259;-60
2023/01/19 03:13:44;;;;;;;1.75;1.60;;;16.20;50.30;;;;;;5096190;28;20181;-61
2023/01/19 03:16:24;;;;;;;1.95;1.75;;;16.10;50.30;;;;;;5115224;28;20212;-61
2023/01/19 03:19:00;;;;;;;2.58;2.00;;;16.10;50.30;;;;;;5114305;28;20561;-62
2023/01/19 03:21:26;;;;;;;2.30;2.10;;;16.20;50.40;;;;;;5115233;28;20217;-61
2023/01/19 03:23:52;;;;;;;1.83;1.73;;;16.10;50.40;;;;;;5114799;28;20276;-58
2023/01/19 03:26:20;;;;;;;2.10;1.90;;;16.10;50.40;;;;;;5079475;28;20264;-58
2023/01/19 03:28:45;;;;;;;1.80;1.70;;;16.10;50.40;;;;;;5096787;28;20212;-58
2023/01/19 03:31:17;;;;;;;1.80;1.70;;;16.10;50.50;;;;;;5096850;28;20176;-59
2023/01/19 03:33:46;;;;;;;2.13;1.92;;;16.10;50.50;;;;;;5113842;28;20185;-59
2023/01/19 03:36:18;;;;;;;1.95;1.83;;;16.10;50.40;;;;;;5080122;28;20217;-59
2023/01/19 03:38:43;;;;;;;2.00;1.80;;;16.10;50.40;;;;;;5079981;28;20212;-59
2023/01/19 03:41:10;;;;;;;2.10;1.90;;;16.10;50.40;;;;;;5078945;28;20224;-59
2023/01/19 03:43:36;;;;;;;1.75;1.65;;;16.00;50.30;;;;;;5114613;28;20177;-59
2023/01/19 03:46:03;;;;;;;1.60;1.50;;;16.00;50.40;;;;;;5079847;28;20226;-59
2023/01/19 03:48:28;;;;;;;1.88;1.52;;;16.00;50.30;;;;;;5113938;28;20176;-58
2023/01/19 03:50:54;;;;;;;2.00;1.60;;;16.00;50.30;;;;;;5079116;28;20177;-58
2023/01/19 03:53:19;;;;;;;1.67;1.58;;;16.00;50.40;;;;;;5096386;28;20177;-59
2023/01/19 03:55:46;;;;;;;2.28;1.67;;;16.00;50.40;;;;;;5113508;28;20181;-58
2023/01/19 03:58:11;;;;;;;2.03;1.83;;;15.90;50.40;;;;;;5114714;28;20547;-58
2023/01/19 04:00:37;;;;;;;1.60;1.50;;;16.00;50.40;;;;;;5113928;28;20663;-58
2023/01/19 04:03:03;;;;;;;1.70;1.60;;;16.00;50.40;;;;;;5113711;28;20181;-58
2023/01/19 04:05:29;;;;;;;1.70;1.60;;;16.00;50.50;;;;;;5114328;28;20631;-59
2023/01/19 04:07:55;;;;;;;1.48;1.38;;;16.00;50.50;;;;;;5113208;28;20264;-58
2023/01/19 04:10:20;;;;;;;2.47;1.70;;;16.00;50.60;;;;;;5114632;28;20165;-58
2023/01/19 04:12:46;;;;;;;1.80;1.67;;;15.90;50.60;;;;;;5114061;28;20183;-59
2023/01/19 04:15:11;;;;;;;1.40;1.30;;;15.90;50.60;;;;;;5113096;28;20191;-59
2023/01/19 04:17:38;;;;;;;1.95;1.60;;;15.90;50.70;;;;;;5113619;28;20744;-59
2023/01/19 04:20:04;;;;;;;1.30;1.20;;;15.90;50.70;;;;;;5114035;28;20266;-59
2023/01/19 04:22:29;;;;;;;1.40;1.30;;;15.90;50.70;;;;;;5113225;28;20165;-59
2023/01/19 04:24:58;;;;;;;1.63;1.52;;;15.90;50.70;;;;;;5113477;28;20181;-59
2023/01/19 04:27:24;;;;;;;1.63;1.52;;;15.90;50.70;;;;;;5114185;28;20177;-61
2023/01/19 04:29:50;;;;;;;1.30;1.20;;;15.90;50.70;;;;;;5113102;28;20703;-58
2023/01/19 04:32:16;;;;;;;1.50;1.25;;;15.90;50.70;;;;;;5114014;28;20632;-59
2023/01/19 04:34:42;;;;;;;1.77;1.35;;;15.90;50.70;;;;;;5113618;28;20177;-60
2023/01/19 04:37:07;;;;;;;1.13;1.13;;;15.90;50.80;;;;;;5113192;28;20180;-60
2023/01/19 04:39:33;;;;;;;1.70;1.35;;;15.80;50.80;;;;;;5113403;28;20493;-60
2023/01/19 04:41:59;;;;;;;1.20;1.10;;;15.80;50.80;;;;;;5113683;28;20185;-60
2023/01/19 04:44:26;;;;;;;1.33;1.10;;;15.80;50.80;;;;;;5113049;28;20172;-60
2023/01/19 04:46:51;;;;;;;1.02;1.00;;;15.80;50.80;;;;;;5113249;28;20651;-59
2023/01/19 04:49:17;;;;;;;1.60;1.50;;;15.80;50.70;;;;;;5113595;28;20177;-59
2023/01/19 04:51:42;;;;;;;1.10;1.00;;;15.80;50.70;;;;;;5112415;28;20208;-59
2023/01/19 04:54:08;;;;;;;1.13;1.02;;;15.80;50.80;;;;;;5113765;28;20218;-59
2023/01/19 04:56:34;;;;;;;1.00;1.00;;;15.80;50.80;;;;;;5113110;28;20173;-59
2023/01/19 04:59:00;;;;;;;1.20;1.17;;;15.80;50.80;;;;;;5112854;28;20169;-59
2023/01/19 05:01:25;;;;;;;1.60;1.50;;;15.70;50.70;;;;;;5113602;28;20235;-59
2023/01/19 05:03:51;;;;;;;1.95;1.52;;;15.80;50.80;;;;;;5112681;28;20173;-59
2023/01/19 05:06:17;;;;;;;1.10;1.00;;;15.80;50.80;;;;;;5112347;28;20173;-59
2023/01/19 05:08:42;;;;;;;1.00;0.98;;;15.70;50.80;;;;;;5112887;28;20256;-59
2023/01/19 05:11:08;;;;;;;1.15;0.98;;;15.70;51.00;;;;;;5112789;28;20161;-59
2023/01/19 05:13:33;;;;;;;1.30;1.20;;;15.70;51.00;;;;;;5113173;28;20196;-59
2023/01/19 05:15:59;;;;;;;1.30;1.20;;;15.70;51.10;;;;;;5113156;28;20209;-59
2023/01/19 05:18:25;;;;;;;1.30;1.20;;;15.70;51.00;;;;;;5112676;28;20182;-59
2023/01/19 05:20:50;;;;;;;2.08;1.10;;;15.70;51.00;;;;;;5112798;28;20212;-59
2023/01/19 05:23:16;;;;;;;1.25;0.93;;;15.70;51.00;;;;;;5113102;28;20180;-59
2023/01/19 05:25:41;;;;;;;0.90;0.90;;;15.70;50.90;;;;;;5112258;28;20187;-58
2023/01/19 05:28:07;;;;;;;1.58;1.20;;;15.70;51.00;;;;;;5115539;28;20164;-58
2023/01/19 05:30:33;;;;;;;1.27;1.00;;;15.70;51.00;;;;;;5117141;28;20738;-59
2023/01/19 05:32:58;;;;;;;0.93;0.93;;;15.70;51.00;;;;;;5116614;28;20559;-59
2023/01/19 05:35:24;;;;;;;0.90;0.90;;;15.70;51.00;;;;;;5117078;28;20173;-59
2023/01/19 05:37:49;;;;;;;1.63;1.52;;;15.60;50.90;;;;;;5117097;28;20184;-60
2023/01/19 05:40:15;;;;;;;1.13;0.98;;;15.70;51.00;;;;;;5116598;28;20554;-60
2023/01/19 05:42:40;;;;;;;0.90;0.90;;;15.60;51.00;;;;;;5117019;28;20267;-60
2023/01/19 05:45:07;;;;;;;1.33;1.10;;;15.60;51.10;;;;;;5117240;28;20173;-60
2023/01/19 05:47:32;;;;;;;1.15;0.90;;;15.60;51.10;;;;;;5116130;28;20177;-59
2023/01/19 05:49:58;;;;;;;1.20;1.10;;;15.60;51.20;;;;;;5117072;28;20169;-59
2023/01/19 05:52:26;;;;;;;1.10;1.00;;;15.60;51.10;;;;;;5117022;28;20212;-61
2023/01/19 05:54:53;;;;;;;1.05;0.90;;;15.60;51.20;;;;;;5115922;28;20180;-59
2023/01/19 05:57:19;;;;;;;1.20;1.10;;;15.60;51.20;;;;;;5116932;28;20181;-60
2023/01/19 05:59:45;;;;;;;1.10;0.82;;;15.60;51.20;;;;;;5116461;28;20200;-61
2023/01/19 06:02:10;;;;;;;1.27;1.10;;;15.60;51.20;;;;;;5116228;28;20173;-62
2023/01/19 06:04:36;;;;;;;0.98;0.80;;;15.60;51.20;;;;;;5116355;28;20175;-61
2023/01/19 06:07:02;;;;;;;0.70;0.70;;;15.60;51.30;;;;;;5116773;28;20263;-62
2023/01/19 06:09:28;;;;;;;1.20;1.00;;;15.50;51.20;;;;;;5116162;28;20567;-60
2023/01/19 06:11:55;;;;;;;1.02;0.80;;;15.50;51.20;;;;;;5116564;28;20172;-60
2023/01/19 06:14:21;;;;;;;0.70;0.70;;;15.50;51.40;;;;;;5116302;28;20207;-61
2023/01/19 06:16:47;;;;;;;1.23;0.85;;;15.50;51.30;;;;;;5114572;28;20221;-62
2023/01/19 06:19:13;;;;;;;1.00;0.90;;;15.50;51.40;;;;;;5116386;28;20202;-62
2023/01/19 06:21:39;;;;;;;1.75;0.95;;;15.50;51.40;;;;;;5115328;28;20307;-61
2023/01/19 06:24:05;;;;;;;0.75;0.75;;;15.50;51.50;;;;;;5116526;28;20256;-60
2023/01/19 06:26:30;;;;;;;0.77;0.77;;;15.50;51.40;;;;;;5116034;28;20208;-61
2023/01/19 06:28:56;;;;;;;0.70;0.70;;;15.50;51.40;;;;;;5115477;28;20180;-59
2023/01/19 06:31:21;;;;;;;0.70;0.70;;;15.50;51.40;;;;;;5116365;28;20180;-60
2023/01/19 06:33:47;;;;;;;2.20;0.93;;;15.50;51.50;;;;;;5115843;28;20169;-61
2023/01/19 06:36:12;;;;;;;0.82;0.70;;;15.50;51.40;;;;;;5115690;28;20181;-61
2023/01/19 06:38:38;;;;;;;0.70;0.70;;;15.50;51.50;;;;;;5115034;28;20542;-61
2023/01/19 06:41:04;;;;;;;1.42;0.80;;;15.40;51.40;;;;;;5116095;28;20209;-61
2023/01/19 06:43:30;;;;;;;0.77;0.77;;;15.50;51.70;;;;;;5115372;28;20226;-62
2023/01/19 06:45:56;;;;;;;1.08;0.80;;;15.50;51.50;;;;;;5115870;28;20177;-61
2023/01/19 06:48:21;;;;;;;2.05;1.13;;;15.40;51.50;;;;;;5115862;28;20170;-61
2023/01/19 06:50:47;;;;;;;1.08;0.95;;;15.40;51.70;;;;;;5114745;28;20173;-61
2023/01/19 06:53:15;;;;;;;0.80;0.80;;;15.40;52.40;;;;;;5115944;28;20177;-60
2023/01/19 06:55:43;;;;;;;1.10;0.80;;;15.40;51.70;;;;;;5115311;28;20184;-60
2023/01/19 06:58:09;;;;;;;0.85;0.85;;;15.40;51.60;;;;;;5114995;28;20267;-60
2023/01/19 07:00:34;;;;;;;0.80;0.80;;;15.40;51.80;;;;;;5115315;28;20287;-61
2023/01/19 07:03:00;;;;;;;0.70;0.70;;;15.40;51.80;;;;;;5115511;28;20169;-61
2023/01/19 07:05:25;;;;;;;0.68;0.68;;;15.50;51.70;;;;;;5114919;28;20177;-60
2023/01/19 07:07:52;;;;;;;0.73;0.73;;;15.60;51.90;;;;;;5115360;28;20177;-60
2023/01/19 07:10:18;;;;;;;0.70;0.60;;;15.70;51.80;;;;;;5115389;28;20211;-60
2023/01/19 07:12:45;;;;;;;0.85;0.80;;;15.80;51.70;;;;;;5114452;28;20173;-61
2023/01/19 07:15:10;;;;;;;0.90;0.75;;;15.80;51.60;;;;;;5115498;28;20294;-61
2023/01/19 07:17:36;;;;;;;0.63;0.63;;;16.00;51.40;;;;;;5114623;28;20228;-62
2023/01/19 07:20:02;;;;;;;0.75;0.75;;;16.20;51.30;;;;;;5114509;28;20197;-59
2023/01/19 07:22:27;;;;;;;1.58;0.90;;;16.40;51.00;;;;;;5115355;28;20184;-59
2023/01/19 07:24:53;;;;;;;1.13;0.80;;;16.50;50.80;;;;;;5114001;28;20615;-59
2023/01/19 07:27:18;;;;;;;2.53;0.98;;;16.70;50.70;;;;;;5115036;28;20169;-72
2023/01/19 07:29:44;;;;;;;0.85;0.80;;;16.80;50.50;;;;;;5115618;28;20169;-74
2023/01/19 07:32:10;;;;;;;0.80;0.50;;;16.90;50.60;;;;;;5114097;28;20169;-72
2023/01/19 07:34:35;;;;;;;2.35;0.93;;;16.90;50.50;;;;;;5114830;28;20222;-70
2023/01/19 07:37:01;;;;;;;1.30;0.80;;;17.00;50.20;;;;;;5115113;28;20634;-66
2023/01/19 07:39:26;;;;;;;2.08;0.60;;;17.10;50.40;;;;;;5114166;28;20196;-71
2023/01/19 07:41:52;;;;;;;1.15;0.60;;;17.20;50.40;;;;;;5114357;28;20248;-75
2023/01/19 07:44:17;;;;;;;1.10;0.70;;;17.30;50.20;;;;;;5114809;28;20259;-72
2023/01/19 07:46:43;;;;;;;4.18;0.90;;;17.40;50.20;;;;;;5113685;28;20208;-75
2023/01/19 07:49:09;;;;;;;2.40;0.57;;;17.40;50.20;;;;;;5114788;28;20203;-79
2023/01/19 07:51:35;;;;;;;2.33;0.80;;;17.40;50.10;;;;;;5113539;28;20196;-68
2023/01/19 07:54:00;;;;;;;2.35;1.30;;;17.50;50.30;;;;;;5113794;28;20177;-74
2023/01/19 07:56:28;;;;;;;0.95;0.82;;;17.50;50.20;;;;;;5114495;28;20173;-68
2023/01/19 07:58:54;;;;;;;3.15;0.80;;;17.50;50.20;;;;;;5114243;28;20247;-71
2023/01/19 08:01:19;;;;;;;2.30;0.85;;;17.50;50.30;;;;;;5113646;28;20212;-69
2023/01/19 08:03:46;;;;;;;1.70;0.60;;;17.50;50.40;;;;;;5114229;28;20196;-75
2023/01/19 08:06:22;;;;;;;1.05;0.77;;;17.40;50.50;;;;;;5114600;28;20264;-75
2023/01/19 08:08:48;;;;;;;3.05;1.08;;;17.40;50.50;;;;;;5095064;28;20165;-76
2023/01/19 08:11:14;;;;;;;4.25;0.70;;;17.50;50.60;;;;;;5114191;28;20549;-74
2023/01/19 08:13:40;;;;;;;2.33;0.90;;;17.50;50.60;;;;;;5113950;28;20181;-71
2023/01/19 08:16:05;;;;;;;2.42;1.00;;;17.50;50.60;;;;;;5112674;28;20691;-68
2023/01/19 08:18:31;;;;;;;3.85;1.02;;;17.50;50.60;;;;;;5114287;28;20188;-69
2023/01/19 08:20:59;;;;;;;1.17;0.73;;;17.40;50.60;;;;;;5113755;28;20213;-70
2023/01/19 08:23:26;;;;;;;1.90;0.90;;;17.30;50.70;;;;;;5114104;28;20169;-70
2023/01/19 08:25:52;;;;;;;2.83;0.90;;;17.20;50.80;;;;;;5113781;28;20326;-71
2023/01/19 08:28:17;;;;;;;1.40;1.00;;;17.10;51.10;;;;;;5113224;28;20283;-69
2023/01/19 08:30:43;;;;;;;1.50;0.95;;;17.00;51.00;;;;;;5113517;28;20173;-69
2023/01/19 08:33:12;;;;;;;2.03;0.90;;;17.00;51.20;;;;;;5114023;28;20255;-69
2023/01/19 08:35:41;;;;;;;1.88;1.00;;;17.00;51.10;;;;;;5112970;28;20177;-69
2023/01/19 08:38:07;;;;;;;1.88;0.88;;;17.00;51.30;;;;;;5113835;28;20173;-70
2023/01/19 08:40:38;;;;;;;2.35;0.88;;;16.90;51.30;;;;;;5113400;28;20208;-71
2023/01/19 08:43:08;;;;;;;2.03;1.15;;;17.00;51.30;;;;;;5113010;28;20173;-70
2023/01/19 08:45:34;;;;;;;0.82;0.75;;;17.00;51.20;;;;;;5113722;28;20180;-72
2023/01/19 08:48:00;;;;;;;1.55;1.05;;;17.10;51.20;;;;;;5095546;28;20235;-71
2023/01/19 08:50:29;;;;;;;2.92;1.33;;;17.10;51.20;;;;;;5112808;28;20620;-71
2023/01/19 08:52:56;;;;;;;2.33;1.05;;;17.10;51.20;;;;;;5113306;28;20177;-71
2023/01/19 08:55:22;;;;;;;0.82;0.65;;;17.20;51.10;;;;;;5113438;28;20589;-69
2023/01/19 08:57:51;;;;;;;1.35;1.00;;;17.10;51.10;;;;;;5112010;28;20169;-71
2023/01/19 09:00:18;;;;;;;1.95;1.13;;;17.20;51.00;;;;;;5113480;28;20201;-70
2023/01/19 09:02:43;;;;;;;1.15;0.85;;;17.20;51.10;;;;;;5112915;28;20224;-70
2023/01/19 09:05:09;;;;;;;1.48;0.90;;;17.20;51.00;;;;;;5112845;28;20201;-71
2023/01/19 09:07:35;;;;;;;2.17;1.00;;;17.20;51.00;;;;;;5112932;28;20593;-71
2023/01/19 09:10:02;;;;;;;0.90;0.80;;;17.20;51.10;;;;;;5113407;28;20184;-71
2023/01/19 09:12:27;;;;;;;1.05;0.80;;;17.20;51.00;;;;;;5112842;28;20177;-70
2023/01/19 09:14:53;;;;;;;1.92;0.93;;;17.30;51.00;;;;;;5113152;28;20183;-70
2023/01/19 09:17:18;;;;;;;2.13;1.00;;;17.30;50.90;;;;;;5112514;28;20337;-70
2023/01/19 09:19:44;;;;;;;0.82;0.77;;;17.30;51.00;;;;;;5112956;28;20523;-70
2023/01/19 09:22:09;;;;;;;1.77;1.00;;;17.30;50.90;;;;;;5113120;28;20627;-71
2023/01/19 09:24:35;;;;;;;1.70;1.00;;;17.30;51.00;;;;;;5112073;28;20169;-71
2023/01/19 09:27:01;;;;;;;1.95;1.20;;;17.40;50.90;;;;;;5113146;28;20185;-70
2023/01/19 09:29:26;;;;;;;4.22;1.25;;;17.40;50.80;;;;;;5113187;28;20168;-69
2023/01/19 09:31:52;;;;;;;2.58;1.08;;;17.50;50.80;;;;;;5112085;28;20181;-68
2023/01/19 09:34:17;;;;;;;0.93;0.60;;;17.50;50.70;;;;;;5113024;28;20175;-69
2023/01/19 09:36:43;;;;;;;1.85;0.95;;;17.70;50.50;;;;;;5112775;28;20218;-69
2023/01/19 09:39:09;;;;;;;1.63;0.95;;;17.70;50.40;;;;;;5094132;28;20260;-70
2023/01/19 09:41:35;;;;;;;2.58;0.90;;;17.80;50.40;;;;;;5112598;28;20216;-71
2023/01/19 09:44:01;;;;;;;1.77;1.08;;;17.80;50.30;;;;;;5078239;28;20173;-70
2023/01/19 09:46:26;;;;;;;1.90;0.90;;;17.80;50.30;;;;;;5112243;28;20177;-71
2023/01/19 09:48:57;;;;;;;1.52;0.80;;;17.70;50.50;;;;;;5112680;28;20219;-70
2023/01/19 09:51:23;;;;;;;2.33;1.33;;;17.60;50.50;;;;;;5095115;28;20203;-70
2023/01/19 09:54:11;;;;;;;3.38;1.20;;;17.50;50.70;;;;;;5111702;28;20222;-71
2023/01/19 09:56:37;;;;;;;2.03;0.95;;;17.50;50.70;;;;;;5112794;28;20174;-69
2023/01/19 09:59:24;;;;;;;1.10;0.70;;;17.50;51.00;;;;;;5113156;28;20256;-70
2023/01/19 10:02:06;;;;;;;2.25;1.08;;;17.50;51.10;;;;;;5095779;28;20213;-71
2023/01/19 10:04:43;;;;;;;3.47;1.27;;;17.50;51.10;;;;;;5094881;28;20177;-69
2023/01/19 10:07:29;;;;;;;1.40;0.93;;;17.50;51.10;;;;;;5094114;28;20184;-71
2023/01/19 10:10:10;;;;;;;2.38;1.08;;;17.40;51.20;;;;;;5097244;28;20314;-72
2023/01/19 10:13:12;;;;;;;3.10;1.45;;;17.30;51.10;;;;;;5094278;28;20169;-69
2023/01/19 10:16:02;;;;;;;1.15;1.00;;;17.30;51.30;;;;;;5115654;28;20296;-70
2023/01/19 10:18:34;;;;;;;1.17;1.08;;;17.30;51.40;;;;;;5083854;28;20259;-69
2023/01/19 10:21:18;;;;;;;1.65;1.10;;;17.10;51.50;;;;;;5098388;28;20212;-70
2023/01/19 10:23:53;;;;;;;3.65;1.30;;;17.10;51.70;;;;;;5115958;28;20513;-70
2023/01/19 10:26:22;;;;;;;2.15;1.27;;;17.10;51.80;;;;;;5082167;28;20168;-70
2023/01/19 10:28:49;;;;;;;1.02;0.82;;;17.10;51.90;;;;;;5115366;28;20183;-71
2023/01/19 10:31:16;;;;;;;1.75;1.15;;;17.10;51.90;;;;;;5098249;28;20197;-67
2023/01/19 10:33:41;;;;;;;1.55;1.15;;;17.00;51.90;;;;;;5080888;28;20188;-68
2023/01/19 10:36:28;;;;;;;1.77;1.00;;;17.10;51.90;;;;;;5097055;28;20177;-68
2023/01/19 10:38:54;;;;;;;2.83;1.02;;;17.10;51.80;;;;;;5097721;28;20184;-69
2023/01/19 10:41:44;;;;;;;1.13;1.00;;;17.10;51.80;;;;;;5097739;28;20562;-69
2023/01/19 10:44:10;;;;;;;2.67;1.20;;;17.10;51.80;;;;;;5095653;28;20264;-70
2023/01/19 10:46:43;;;;;;;1.52;0.73;;;17.10;51.80;;;;;;5115836;28;20223;-70
2023/01/19 10:49:37;;;;;;;2.17;0.93;;;17.00;51.80;;;;;;5115410;28;20582;-70
2023/01/19 10:52:05;;;;;;;1.30;0.90;;;17.00;51.90;;;;;;5115661;28;20177;-70
2023/01/19 10:54:30;;;;;;;2.35;1.17;;;17.00;52.00;;;;;;5097534;28;20560;-70
2023/01/19 10:56:58;;;;;;;1.55;0.80;;;17.00;52.10;;;;;;5080338;28;20222;-70
2023/01/19 10:59:43;;;;;;;1.63;0.98;;;17.00;52.00;;;;;;5097935;28;20173;-68
2023/01/19 11:02:28;;;;;;;2.53;1.00;;;17.10;52.00;;;;;;5115686;28;20234;-71
2023/01/19 11:04:58;;;;;;;1.85;0.90;;;17.10;52.00;;;;;;5114836;28;20157;-70
2023/01/19 11:07:32;;;;;;;2.03;1.00;;;17.10;51.90;;;;;;5115736;28;20180;-69
2023/01/19 11:10:16;;;;;;;1.25;1.00;;;17.10;51.90;;;;;;5114986;28;20234;-71
2023/01/19 11:12:43;;;;;;;2.42;1.20;;;17.00;51.80;;;;;;5115313;28;20181;-69
2023/01/19 11:15:15;;;;;;;1.92;1.25;;;17.00;51.90;;;;;;5097366;28;20181;-70
2023/01/19 11:17:43;;;;;;;1.55;1.13;;;17.00;51.90;;;;;;5076435;28;20260;-71
2023/01/19 11:20:23;;;;;;;1.60;0.90;;;17.00;51.90;;;;;;5077158;28;20205;-71
2023/01/19 11:23:06;;;;;;;1.55;1.08;;;17.00;51.90;;;;;;5093584;28;20186;-71
2023/01/19 11:25:32;;;;;;;1.48;0.93;;;17.00;51.90;;;;;;5092642;28;20174;-72
2023/01/19 11:27:58;;;;;;;2.97;1.27;;;17.00;51.90;;;;;;5077055;28;20231;-70
2023/01/19 11:30:24;;;;;;;2.30;1.20;;;17.10;51.90;;;;;;5076936;28;20166;-70
2023/01/19 11:32:49;;;;;;;2.03;1.00;;;17.10;51.90;;;;;;5075961;28;20215;-68
2023/01/19 11:35:35;;;;;;;2.35;1.30;;;17.10;51.80;;;;;;5093366;28;20252;-69
2023/01/19 11:38:06;;;;;;;1.65;1.08;;;17.10;51.70;;;;;;5093790;28;20201;-71
2023/01/19 11:40:32;;;;;;;2.33;0.93;;;17.10;51.70;;;;;;5094373;28;20210;-69
2023/01/19 11:42:58;;;;;;;1.88;0.98;;;17.10;51.70;;;;;;5093365;28;20174;-70
2023/01/19 11:45:23;;;;;;;1.48;0.90;;;17.10;51.70;;;;;;5093471;28;20659;-68
2023/01/19 11:47:51;;;;;;;1.75;1.23;;;17.10;51.70;;;;;;5075955;28;20166;-70
2023/01/19 11:50:40;;;;;;;2.05;1.27;;;17.10;51.80;;;;;;5094247;28;20174;-71
2023/01/19 11:53:12;;;;;;;2.30;1.35;;;17.10;51.80;;;;;;5093645;28;20182;-70
2023/01/19 11:55:46;;;;;;;1.40;1.00;;;17.10;51.80;;;;;;5094065;28;20178;-71
2023/01/19 11:58:15;;;;;;;2.80;1.02;;;17.10;51.70;;;;;;5076732;28;20185;-71
2023/01/19 12:00:45;;;;;;;1.58;0.90;;;17.20;51.70;;;;;;5092927;28;20259;-72
2023/01/19 12:03:25;;;;;;;1.80;1.10;;;17.20;51.70;;;;;;5094007;28;20209;-74
2023/01/19 12:05:51;;;;;;;1.95;1.08;;;17.20;51.60;;;;;;5092629;28;20228;-72
2023/01/19 12:08:22;;;;;;;2.30;0.93;;;17.20;51.70;;;;;;5093278;28;20197;-74
2023/01/19 12:10:48;;;;;;;2.20;1.35;;;17.20;51.70;;;;;;5092763;28;20189;-74
2023/01/19 12:13:24;;;;;;;2.08;1.30;;;17.10;51.80;;;;;;5092142;28;20165;-72
2023/01/19 12:16:12;;;;;;;2.83;1.17;;;17.10;51.80;;;;;;5095588;28;20184;-71
2023/01/19 12:18:41;;;;;;;2.03;1.20;;;17.10;51.80;;;;;;5095617;28;20253;-71
2023/01/19 12:21:06;;;;;;;2.30;1.20;;;17.20;51.80;;;;;;5095324;28;20213;-72
2023/01/19 12:24:15;;;;;;;3.08;1.45;;;17.20;51.70;;;;;;5113944;28;20397;-70
2023/01/19 12:26:55;;;;;;;3.03;1.40;;;17.30;51.60;;;;;;5011131;28;20291;-72
2023/01/19 12:29:21;;;;;;;3.90;1.40;;;17.20;51.50;;;;;;5010297;28;20176;-73
2023/01/19 12:32:11;;;;;;;3.65;1.10;;;17.30;51.60;;;;;;5045534;28;20205;-73
2023/01/19 12:34:47;;;;;;;2.67;1.20;;;17.20;51.60;;;;;;5110253;28;20530;-76
2023/01/19 12:37:34;;;;;;;2.80;1.52;;;17.10;51.70;;;;;;5094882;28;20301;-72
2023/01/19 12:40:04;;;;;;;3.33;1.33;;;17.20;51.70;;;;;;5077383;28;20197;-69
2023/01/19 12:42:29;;;;;;;3.53;1.83;;;17.10;51.80;;;;;;5094599;28;20173;-69
2023/01/19 12:45:05;;;;;;;3.90;1.83;;;17.10;51.70;;;;;;5095128;28;20173;-73
2023/01/19 12:47:31;;;;;;;6.38;2.05;;;17.20;51.50;;;;;;5113703;28;20188;-73
2023/01/19 12:50:04;;;;;;;4.45;1.75;;;17.20;51.40;;;;;;5078105;28;20165;-73
2023/01/19 12:52:37;;;;;;;3.88;1.77;;;17.30;51.50;;;;;;5096309;28;20169;-73
2023/01/19 12:55:12;;;;;;;3.70;1.90;;;17.30;51.40;;;;;;5079866;28;20181;-72
2023/01/19 12:57:56;;;;;;;3.47;1.90;;;17.20;51.40;;;;;;5112727;28;20172;-73
2023/01/19 13:00:22;;;;;;;2.95;1.58;;;17.30;51.50;;;;;;5113516;28;20253;-75
2023/01/19 13:03:01;;;;;;;3.15;1.85;;;17.30;51.60;;;;;;5112542;28;20169;-73
2023/01/19 13:05:29;;;;;;;3.28;1.77;;;17.30;51.60;;;;;;5096762;28;20222;-74